createdAt,value
2019-02-28T00:00:07.489Z,0.92
2019-02-28T00:02:39.611Z,0.89
2019-02-28T00:05:11.639Z,0.88
2019-02-28T00:07:43.236Z,0.98
2019-02-28T00:10:14.944Z,0.93
2019-02-28T00:12:48.082Z,0.93
2019-02-28T00:15:20.235Z,0.93
2019-02-28T00:17:52.165Z,0.91
2019-02-28T00:20:23.856Z,0.93
2019-02-28T00:22:55.794Z,0.94
2019-02-28T00:25:27.901Z,0.97
2019-02-28T00:27:59.677Z,0.99
2019-02-28T00:30:31.328Z,1.03
2019-02-28T00:33:02.949Z,1.06
2019-02-28T00:35:34.685Z,1.09
2019-02-28T00:38:06.410Z,1.08
2019-02-28T00:40:39.231Z,1.03
2019-02-28T00:43:10.764Z,0.99
2019-02-28T00:45:42.332Z,0.98
2019-02-28T00:48:14.033Z,0.95
2019-02-28T00:50:45.798Z,0.90
2019-02-28T00:53:17.564Z,0.87
2019-02-28T00:55:49.448Z,0.86
2019-02-28T00:58:21.070Z,0.85
2019-02-28T01:00:52.651Z,0.81
2019-02-28T01:03:27.439Z,0.80
2019-02-28T01:05:57.508Z,0.78
2019-02-28T01:08:29.402Z,0.77
2019-02-28T01:11:02.475Z,0.76
2019-02-28T01:13:34.174Z,0.76
2019-02-28T01:16:05.777Z,0.83
2019-02-28T01:18:37.438Z,0.80
2019-02-28T01:21:09.329Z,0.74
2019-02-28T01:23:41.113Z,0.70
2019-02-28T01:26:20.798Z,0.63
2019-02-28T01:28:52.677Z,0.46
2019-02-28T01:31:23.963Z,0.28
2019-02-28T01:33:56.009Z,0.15
2019-02-28T01:36:28.841Z,0.05
2019-02-28T01:39:00.639Z,-0.05
2019-02-28T01:41:32.288Z,-0.11
2019-02-28T01:44:04.115Z,-0.13
2019-02-28T01:46:35.673Z,-0.18
2019-02-28T01:49:07.357Z,-0.14
2019-02-28T01:51:38.834Z,-0.10
2019-02-28T01:54:10.445Z,-0.12
2019-02-28T01:56:42.342Z,-0.15
2019-02-28T01:59:13.947Z,-0.16
2019-02-28T02:01:45.549Z,-0.16
2019-02-28T02:04:17.247Z,-0.10
2019-02-28T02:06:48.880Z,-0.10
2019-02-28T02:09:20.807Z,-0.16
2019-02-28T02:11:52.826Z,-0.23
2019-02-28T02:14:24.415Z,-0.28
2019-02-28T02:16:58.241Z,-0.33
2019-02-28T02:19:29.266Z,-0.33
2019-02-28T02:22:00.869Z,-0.29
2019-02-28T02:24:32.522Z,-0.40
2019-02-28T02:27:04.171Z,-0.51
2019-02-28T02:29:37.051Z,-0.64
2019-02-28T02:32:08.723Z,-0.70
2019-02-28T02:34:40.736Z,-0.76
2019-02-28T02:37:12.337Z,-0.78
2019-02-28T02:39:44.009Z,-0.79
2019-02-28T02:42:15.713Z,-0.74
2019-02-28T02:44:47.504Z,-0.67
2019-02-28T02:47:19.107Z,-0.66
2019-02-28T02:49:55.985Z,-0.65
2019-02-28T02:52:29.947Z,-0.59
2019-02-28T02:54:57.688Z,-0.63
2019-02-28T02:57:29.483Z,-0.64
2019-02-28T03:00:00.993Z,-0.68
2019-02-28T03:02:34.228Z,-0.69
2019-02-28T03:05:06.086Z,-0.72
2019-02-28T03:07:37.701Z,-0.84
2019-02-28T03:10:10.473Z,-0.91
2019-02-28T03:12:42.179Z,-0.99
2019-02-28T03:15:15.490Z,-1.02
2019-02-28T03:17:48.765Z,-1.00
2019-02-28T03:20:20.587Z,-0.98
2019-02-28T03:22:52.118Z,-0.95
2019-02-28T03:25:28.101Z,-0.94
2019-02-28T03:27:58.348Z,-0.92
2019-02-28T03:30:33.314Z,-0.89
2019-02-28T03:33:04.581Z,-0.95
2019-02-28T03:35:43.362Z,-0.97
2019-02-28T03:38:11.631Z,-0.99
2019-02-28T03:40:44.233Z,-1.03
2019-02-28T03:43:15.829Z,-1.10
2019-02-28T03:45:48.185Z,-1.18
2019-02-28T03:48:19.950Z,-1.29
2019-02-28T03:50:55.399Z,-1.40
2019-02-28T03:53:25.384Z,-1.47
2019-02-28T03:55:57.290Z,-1.49
2019-02-28T03:58:29.179Z,-1.52
2019-02-28T04:01:00.788Z,-1.49
2019-02-28T04:03:33.687Z,-1.44
2019-02-28T04:06:06.251Z,-1.32
2019-02-28T04:08:37.888Z,-1.30
2019-02-28T04:11:09.554Z,-1.16
2019-02-28T04:13:41.056Z,-1.08
2019-02-28T04:16:12.584Z,-1.11
2019-02-28T04:18:46.380Z,-1.21
2019-02-28T04:21:17.501Z,-1.11
2019-02-28T04:23:49.277Z,-1.03
2019-02-28T04:26:21.067Z,-0.95
2019-02-28T04:28:54.684Z,-0.82
2019-02-28T04:31:26.054Z,-0.93
2019-02-28T04:33:57.880Z,-1.06
2019-02-28T04:36:35.419Z,-0.89
2019-02-28T04:39:06.619Z,-0.77
2019-02-28T04:41:38.369Z,-0.32
2019-02-28T04:44:09.971Z,-0.22
2019-02-28T04:46:41.834Z,-0.22
2019-02-28T04:49:13.584Z,-0.12
2019-02-28T04:51:47.402Z,0.07
2019-02-28T04:54:19.210Z,-0.26
2019-02-28T04:56:50.678Z,-0.54
2019-02-28T04:59:22.593Z,-0.59
2019-02-28T05:01:54.133Z,-0.69
2019-02-28T05:04:25.628Z,-0.09
2019-02-28T05:06:57.113Z,0.34
2019-02-28T05:09:28.796Z,0.66
2019-02-28T05:12:04.961Z,0.77
2019-02-28T05:14:33.640Z,0.96
2019-02-28T05:17:05.351Z,1.07
2019-02-28T05:19:36.952Z,1.09
2019-02-28T05:22:08.712Z,1.08
2019-02-28T05:24:42.684Z,1.42
2019-02-28T05:27:15.310Z,1.68
2019-02-28T05:29:47.030Z,1.47
2019-02-28T05:32:18.688Z,1.10
2019-02-28T05:34:50.994Z,0.54
2019-02-28T05:37:23.691Z,0.50
2019-02-28T05:39:55.430Z,0.53
2019-02-28T05:42:27.030Z,0.43
2019-02-28T05:44:58.891Z,0.23
2019-02-28T05:47:32.452Z,-0.16
2019-02-28T05:50:04.010Z,-0.48
2019-02-28T05:52:35.703Z,-0.53
2019-02-28T05:55:07.871Z,-0.60
2019-02-28T05:57:43.257Z,-0.35
2019-02-28T06:00:14.210Z,0.14
2019-02-28T06:02:46.031Z,0.37
2019-02-28T06:05:17.707Z,0.66
2019-02-28T06:07:49.579Z,0.85
2019-02-28T06:10:24.629Z,0.94
2019-02-28T06:12:54.576Z,1.01
2019-02-28T06:15:26.202Z,1.13
2019-02-28T06:17:58.143Z,1.18
2019-02-28T06:20:29.871Z,1.21
2019-02-28T06:23:01.612Z,1.44
2019-02-28T06:25:33.126Z,2.13
2019-02-28T06:28:04.610Z,2.98
2019-02-28T06:30:36.361Z,3.64
2019-02-28T06:33:08.017Z,4.56
2019-02-28T06:35:39.681Z,5.03
2019-02-28T06:38:11.403Z,5.58
2019-02-28T06:40:43.440Z,6.12
2019-02-28T06:43:15.076Z,6.64
2019-02-28T06:45:49.416Z,7.27
2019-02-28T06:48:25.814Z,8.23
2019-02-28T06:50:54.564Z,7.94
2019-02-28T06:53:27.144Z,8.11
2019-02-28T06:55:58.852Z,8.36
2019-02-28T06:58:33.276Z,9.17
2019-02-28T07:01:04.157Z,9.10
2019-02-28T07:03:38.798Z,9.27
2019-02-28T07:06:09.525Z,9.89
2019-02-28T07:08:41.208Z,10.48
2019-02-28T07:11:12.902Z,11.00
2019-02-28T07:13:44.548Z,11.46
2019-02-28T07:16:17.183Z,11.52
2019-02-28T07:18:52.924Z,11.94
2019-02-28T07:21:22.940Z,12.16
2019-02-28T07:23:55.667Z,12.99
2019-02-28T07:26:28.807Z,13.73
2019-02-28T07:29:01.197Z,13.70
2019-02-28T07:31:33.318Z,14.63
2019-02-28T07:34:05.159Z,15.62
2019-02-28T07:36:36.847Z,15.93
2019-02-28T07:39:10.147Z,16.28
2019-02-28T07:41:42.011Z,16.18
2019-02-28T07:44:13.701Z,16.29
2019-02-28T07:46:45.844Z,16.09
2019-02-28T07:49:17.686Z,15.70
2019-02-28T07:51:49.326Z,16.51
2019-02-28T07:54:21.367Z,16.69
2019-02-28T07:56:53.421Z,17.50
2019-02-28T07:59:25.063Z,17.57
2019-02-28T08:01:56.616Z,17.82
2019-02-28T08:04:28.158Z,18.11
2019-02-28T08:06:59.778Z,17.19
2019-02-28T08:09:32.848Z,18.61
2019-02-28T08:12:04.825Z,18.23
2019-02-28T08:14:36.992Z,19.61
2019-02-28T08:17:09.951Z,20.10
2019-02-28T09:20:41.338Z,25.80
2019-02-28T09:23:12.559Z,25.81
2019-02-28T09:25:44.534Z,26.73
2019-02-28T09:28:16.869Z,27.39
2019-02-28T09:30:49.060Z,27.04
2019-02-28T09:33:23.198Z,26.83
2019-02-28T09:35:55.230Z,27.16
2019-02-28T09:38:27.201Z,27.19
2019-02-28T09:41:01.362Z,25.67
2019-02-28T09:43:35.370Z,26.95
2019-02-28T09:46:09.013Z,27.19
2019-02-28T09:48:40.942Z,26.41
2019-02-28T09:51:12.769Z,26.92
2019-02-28T09:53:47.334Z,26.55
2019-02-28T09:56:19.496Z,22.70
2019-02-28T09:58:51.513Z,23.66
2019-02-28T10:01:24.461Z,20.16
2019-02-28T10:03:56.629Z,22.14
2019-02-28T10:06:28.534Z,20.96
2019-02-28T10:09:00.523Z,21.26
2019-02-28T10:11:32.638Z,22.75
2019-02-28T10:14:04.355Z,22.78
2019-02-28T10:16:39.139Z,23.94
2019-02-28T10:19:14.174Z,20.58
2019-02-28T10:21:51.911Z,19.60
2019-02-28T10:24:19.894Z,19.21
2019-02-28T10:26:52.393Z,20.87
2019-02-28T10:29:24.987Z,20.31
2019-02-28T10:31:56.960Z,22.18
2019-02-28T10:34:28.557Z,22.79
2019-02-28T10:37:00.255Z,22.37
2019-02-28T10:39:31.786Z,22.45
2019-02-28T10:42:05.164Z,20.53
2019-02-28T10:44:36.695Z,18.94
2019-02-28T10:47:09.123Z,21.66
2019-02-28T10:49:40.851Z,19.99
2019-02-28T10:52:13.901Z,19.36
2019-02-28T10:54:48.671Z,21.02
2019-02-28T10:57:19.319Z,21.43
2019-02-28T10:59:51.591Z,22.29
2019-02-28T11:02:23.653Z,22.09
2019-02-28T11:04:56.120Z,23.23
2019-02-28T11:07:30.936Z,24.40
2019-02-28T11:10:03.448Z,23.39
2019-02-28T11:12:35.026Z,24.52
2019-02-28T11:15:10.415Z,23.57
2019-02-28T11:17:41.511Z,24.54
2019-02-28T11:20:21.822Z,24.15
2019-02-28T11:22:47.867Z,25.00
2019-02-28T11:25:20.696Z,24.34
2019-02-28T11:27:53.720Z,23.55
2019-02-28T11:30:27.693Z,23.70
2019-02-28T11:33:03.318Z,24.38
2019-02-28T11:35:34.606Z,24.35
2019-02-28T11:38:07.202Z,25.41
2019-02-28T11:40:43.838Z,25.03
2019-02-28T11:43:15.775Z,25.58
2019-02-28T11:45:49.044Z,25.01
2019-02-28T11:48:21.320Z,25.69
2019-02-28T11:50:53.695Z,21.30
2019-02-28T11:53:25.468Z,23.56
2019-02-28T11:55:57.350Z,24.05
2019-02-28T11:58:30.450Z,22.60
2019-02-28T12:01:02.546Z,23.62
2019-02-28T12:03:35.550Z,24.87
2019-02-28T12:06:08.276Z,22.78
2019-02-28T12:08:41.643Z,24.25
2019-02-28T12:11:13.674Z,24.56
2019-02-28T12:13:45.886Z,25.08
2019-02-28T12:16:19.240Z,25.10
2019-02-28T12:18:51.322Z,25.01
2019-02-28T12:21:23.139Z,25.49
2019-02-28T12:23:57.359Z,24.13
2019-02-28T12:26:28.422Z,22.75
2019-02-28T12:29:00.202Z,23.81
2019-02-28T12:31:35.336Z,24.57
2019-02-28T12:34:05.294Z,23.47
2019-02-28T12:36:37.041Z,24.33
2019-02-28T12:39:10.487Z,23.98
2019-02-28T12:41:42.099Z,24.27
2019-02-28T12:44:15.391Z,24.67
2019-02-28T12:46:47.424Z,25.25
2019-02-28T12:49:22.219Z,24.05
2019-02-28T12:51:52.711Z,24.22
2019-02-28T12:54:25.949Z,23.45
2019-02-28T12:56:57.856Z,23.25
2019-02-28T12:59:29.581Z,23.45
2019-02-28T13:02:01.197Z,23.06
2019-02-28T13:04:35.867Z,22.77
2019-02-28T13:07:06.121Z,23.21
2019-02-28T13:09:38.178Z,23.71
2019-02-28T13:12:12.140Z,23.47
2019-02-28T13:14:43.670Z,23.17
2019-02-28T13:17:16.156Z,22.96
2019-02-28T13:19:47.999Z,22.38
2019-02-28T13:22:23.325Z,23.01
2019-02-28T13:24:53.413Z,23.11
2019-02-28T13:27:25.092Z,22.93
2019-02-28T13:29:56.700Z,23.31
2019-02-28T13:32:28.417Z,22.95
2019-02-28T13:35:03.071Z,23.22
2019-02-28T13:37:37.452Z,22.91
2019-02-28T13:40:09.470Z,22.91
2019-02-28T13:42:42.323Z,23.07
2019-02-28T13:45:22.161Z,22.53
2019-02-28T13:47:50.089Z,22.45
2019-02-28T13:50:25.868Z,23.13
2019-02-28T13:53:02.534Z,22.79
2019-02-28T13:55:31.064Z,22.90
2019-02-28T13:58:03.302Z,23.29
2019-02-28T14:00:35.293Z,23.42
2019-02-28T14:03:10.329Z,22.40
2019-02-28T14:05:44.223Z,20.95
2019-02-28T14:08:15.991Z,21.76
2019-02-28T14:10:48.019Z,22.12
2019-02-28T14:13:20.116Z,22.16
2019-02-28T14:15:53.080Z,21.06
2019-02-28T14:18:27.514Z,21.04
2019-02-28T14:21:03.177Z,20.71
2019-02-28T14:23:34.838Z,21.33
2019-02-28T14:26:07.442Z,21.13
2019-02-28T14:28:39.535Z,21.68
2019-02-28T14:31:14.008Z,20.84
2019-02-28T14:33:46.575Z,20.89
2019-02-28T14:36:21.550Z,20.82
2019-02-28T14:38:54.338Z,21.08
2019-02-28T14:41:28.447Z,20.72
2019-02-28T14:44:00.176Z,21.07
2019-02-28T14:46:34.652Z,21.37
2019-02-28T14:49:06.809Z,21.12
2019-02-28T14:51:40.734Z,20.04
2019-02-28T14:54:12.683Z,20.72
2019-02-28T14:56:45.676Z,21.01
2019-02-28T14:59:17.937Z,20.75
2019-02-28T15:01:53.192Z,20.54
2019-02-28T15:04:26.670Z,20.68
2019-02-28T15:07:03.043Z,20.25
2019-02-28T15:09:36.257Z,20.35
2019-02-28T15:12:13.963Z,20.20
2019-02-28T15:14:46.051Z,19.84
2019-02-28T15:17:18.134Z,19.93
2019-02-28T15:19:49.823Z,19.88
2019-02-28T15:22:21.781Z,19.57
2019-02-28T15:24:53.938Z,19.26
2019-02-28T15:27:27.100Z,19.43
2019-02-28T15:29:59.816Z,19.69
2019-02-28T15:32:33.952Z,19.65
2019-02-28T15:35:07.210Z,19.83
2019-02-28T15:37:40.168Z,19.25
2019-02-28T15:40:16.378Z,19.62
2019-02-28T15:42:49.263Z,19.22
2019-02-28T15:45:23.074Z,19.09
2019-02-28T15:48:00.241Z,19.11
2019-02-28T15:50:34.310Z,18.84
2019-02-28T15:53:11.280Z,18.55
2019-02-28T15:55:44.678Z,18.55
2019-02-28T15:58:16.794Z,18.26
2019-02-28T16:00:48.825Z,18.19
2019-02-28T16:03:23.897Z,18.19
2019-02-28T16:05:57.174Z,17.80
2019-02-28T16:08:30.085Z,17.76
2019-02-28T16:11:03.316Z,17.33
2019-02-28T16:13:35.458Z,17.17
2019-02-28T16:16:07.531Z,17.14
2019-02-28T16:18:40.655Z,17.26
2019-02-28T16:21:12.780Z,16.89
2019-02-28T16:23:45.186Z,16.64
2019-02-28T16:26:21.734Z,16.67
2019-02-28T16:28:52.800Z,16.71
2019-02-28T16:31:25.462Z,16.68
2019-02-28T16:34:04.896Z,16.60
2019-02-28T16:36:30.768Z,16.55
2019-02-28T16:39:02.794Z,16.29
2019-02-28T16:41:36.847Z,16.12
2019-02-28T16:44:09.156Z,15.68
2019-02-28T16:46:40.816Z,15.48
2019-02-28T16:49:12.983Z,15.28
2019-02-28T16:51:44.835Z,15.13
2019-02-28T16:54:19.305Z,14.89
2019-02-28T16:56:50.734Z,14.73
2019-02-28T16:59:22.596Z,14.58
2019-02-28T17:01:55.646Z,14.43
2019-02-28T17:04:27.847Z,14.29
2019-02-28T17:07:00.451Z,14.21
2019-02-28T17:09:50.637Z,13.98
2019-02-28T17:12:39.506Z,13.81
2019-02-28T17:15:29.539Z,13.73
2019-02-28T17:18:06.491Z,13.68
2019-02-28T17:20:40.754Z,13.67
2019-02-28T17:23:12.789Z,13.48
2019-02-28T17:25:45.164Z,13.40
2019-02-28T17:28:51.023Z,13.34
2019-02-28T17:31:44.573Z,13.21
2019-02-28T17:34:24.421Z,13.18
2019-02-28T17:36:57.189Z,13.08
2019-02-28T17:39:30.682Z,12.96
2019-02-28T17:42:08.600Z,12.83
2019-02-28T17:45:15.603Z,12.96
2019-02-28T17:48:35.758Z,12.82
2019-02-28T17:51:49.195Z,12.51
2019-02-28T17:54:59.183Z,12.41
2019-02-28T17:58:08.692Z,12.53
2019-02-28T18:01:46.243Z,12.46
2019-02-28T18:05:18.589Z,12.23
2019-02-28T18:08:44.858Z,12.11
2019-02-28T18:12:18.494Z,11.97
2019-02-28T18:15:22.962Z,11.78
2019-02-28T18:18:51.312Z,11.43
2019-02-28T18:22:12.853Z,11.23
2019-02-28T18:26:02.428Z,10.96
2019-02-28T18:29:40.556Z,10.91
2019-02-28T18:32:16.822Z,11.31
2019-02-28T18:34:52.740Z,11.30
2019-02-28T18:37:26.651Z,11.05
2019-02-28T18:40:01.662Z,10.92
2019-02-28T18:42:34.999Z,10.69
2019-02-28T18:45:09.721Z,10.62
2019-02-28T18:47:43.893Z,10.53
2019-02-28T18:50:17.904Z,10.28
2019-02-28T18:52:52.693Z,10.16
2019-02-28T18:55:34.643Z,10.38
2019-02-28T18:58:03.457Z,10.40
2019-02-28T19:00:37.913Z,10.45
2019-02-28T19:03:11.837Z,10.31
2019-02-28T19:05:45.115Z,10.11
2019-02-28T19:08:20.028Z,9.91
2019-02-28T19:10:55.069Z,9.66
2019-02-28T19:13:30.966Z,9.49
2019-02-28T19:16:05.045Z,9.71
2019-02-28T19:18:40.686Z,9.50
2019-02-28T19:21:15.674Z,9.33
2019-02-28T19:23:49.873Z,9.32
2019-02-28T19:26:23.617Z,9.25
2019-02-28T19:28:57.225Z,9.21
2019-02-28T19:31:31.014Z,9.30
2019-02-28T19:34:05.001Z,9.22
2019-02-28T19:36:39.905Z,9.18
2019-02-28T19:39:13.197Z,9.08
2019-02-28T19:41:46.963Z,8.80
2019-02-28T19:44:18.849Z,8.73
2019-02-28T19:46:51.323Z,8.80
2019-02-28T19:49:23.343Z,8.76
2019-02-28T19:51:56.140Z,8.62
2019-02-28T19:54:29.575Z,8.60
2019-02-28T19:57:02.915Z,8.53
2019-02-28T19:59:34.973Z,8.39
2019-02-28T20:02:07.513Z,8.28
2019-02-28T20:04:41.617Z,8.07
2019-02-28T20:07:16.556Z,7.76
2019-02-28T20:09:48.635Z,7.57
2019-02-28T20:12:20.629Z,7.47
2019-02-28T20:14:56.290Z,7.41
2019-02-28T20:17:28.750Z,7.52
2019-02-28T20:20:02.928Z,7.54
2019-02-28T20:22:36.069Z,7.59
2019-02-28T20:25:10.390Z,7.76
2019-02-28T20:27:44.455Z,7.74
2019-02-28T20:30:18.708Z,7.71
2019-02-28T20:32:51.870Z,7.69
2019-02-28T20:35:26.870Z,7.61
2019-02-28T20:37:59.938Z,7.56
2019-02-28T20:40:32.562Z,7.60
2019-02-28T20:43:04.989Z,7.49
2019-02-28T20:45:36.726Z,7.36
2019-02-28T20:48:09.134Z,7.37
2019-02-28T20:50:43.104Z,7.42
2019-02-28T20:53:15.278Z,7.41
2019-02-28T20:55:48.073Z,7.33
2019-02-28T20:58:19.780Z,7.19
2019-02-28T21:00:51.859Z,7.00
2019-02-28T21:03:24.389Z,7.10
2019-02-28T21:05:56.424Z,7.12
2019-02-28T21:08:28.398Z,7.04
2019-02-28T21:11:00.614Z,7.01
2019-02-28T21:13:32.393Z,6.85
2019-02-28T21:16:04.287Z,7.01
2019-02-28T21:18:36.146Z,7.13
2019-02-28T21:21:08.391Z,7.09
2019-02-28T21:23:40.634Z,7.13
2019-02-28T21:26:12.814Z,7.05
2019-02-28T21:28:44.811Z,7.11
2019-02-28T21:31:16.789Z,7.05
2019-02-28T21:33:49.018Z,6.86
2019-02-28T21:36:21.097Z,6.70
2019-02-28T21:38:53.312Z,6.53
2019-02-28T21:41:25.516Z,6.44
2019-02-28T21:43:58.897Z,6.54
2019-02-28T21:46:30.961Z,6.48
2019-02-28T21:49:03.426Z,6.21
2019-02-28T21:51:35.714Z,5.79
2019-02-28T21:54:08.883Z,5.42
2019-02-28T21:56:41.583Z,5.13
2019-02-28T21:59:13.613Z,4.90
2019-02-28T22:01:46.023Z,4.77
2019-02-28T22:04:18.131Z,4.74
2019-02-28T22:06:50.362Z,4.75
2019-02-28T22:09:22.414Z,4.83
2019-02-28T22:11:55.141Z,5.10
2019-02-28T22:14:27.480Z,5.10
2019-02-28T22:16:59.301Z,5.05
2019-02-28T22:19:31.284Z,5.11
2019-02-28T22:22:04.372Z,5.16
2019-02-28T22:24:36.312Z,5.08
2019-02-28T22:27:08.408Z,5.11
2019-02-28T22:29:40.650Z,5.07
2019-02-28T22:32:25.596Z,5.05
2019-02-28T22:35:16.168Z,4.91
2019-02-28T22:37:48.237Z,4.76
2019-02-28T22:40:21.592Z,4.74
2019-02-28T22:42:53.311Z,4.88
2019-02-28T22:45:25.017Z,4.98
2019-02-28T22:47:57.081Z,5.03
2019-02-28T22:50:29.099Z,5.00
2019-02-28T22:53:02.364Z,5.08
2019-02-28T22:55:34.055Z,4.96
2019-02-28T22:58:10.833Z,5.05
2019-02-28T23:01:14.541Z,5.15
2019-02-28T23:03:46.003Z,5.24
2019-02-28T23:06:18.684Z,5.34
2019-02-28T23:08:50.290Z,5.46
2019-02-28T23:11:22.931Z,5.59
2019-02-28T23:13:54.720Z,5.69
2019-02-28T23:16:26.997Z,5.74
2019-02-28T23:18:58.892Z,5.86
2019-02-28T23:21:30.624Z,5.89
2019-02-28T23:24:02.568Z,5.61
2019-02-28T23:26:56.106Z,5.75
2019-02-28T23:29:29.332Z,5.80
2019-02-28T23:32:44.013Z,5.74
2019-02-28T23:35:26.465Z,5.78
2019-02-28T23:37:58.079Z,6.09
2019-02-28T23:40:29.832Z,6.34
2019-02-28T23:43:01.437Z,6.52
2019-02-28T23:45:33.217Z,6.38
2019-02-28T23:48:05.038Z,6.38
2019-02-28T23:50:36.754Z,6.33
2019-02-28T23:53:08.829Z,6.41
2019-02-28T23:55:40.481Z,6.45
2019-02-28T23:58:12.068Z,6.55
